Hyannis, MA

10:17 AM EDT on July 28, 2015 (GMT -0400)
Megan Road | | Change Station
CLOSE
Current Station
Personal Weather Station
Location: Barnstable, MA
Elevation: 56 ft
Nearby Weather Stations

Elev 56 ft 41.66 °N, 70.30 °W | Updated 1 minute ago

Partly Cloudy
Partly Cloudy
79.2 °F
Feels Like 83 °F
N
0.0
Wind Variable Wind from WSW
Gusts 0.0 mph

Today
High -- | Low -- °F
--% Chance of Precip.
Yesterday
High -- | Low -- °F
Precip. -- in
5:31 AM 8:03 PM
Waxing Gibbous, 89% visible
Pressure 29.97 in
Visibility 10.0 miles
Clouds Few 1500 ft
Few 7000 ft
Heat Index 83 °F
Dew Point 74 °F
Humidity 83%
Rainfall 0.00 in
Snow Depth Not available.
UV 4.0 out of 12
Pollen 5.10 out of 12
Air Quality Not available.
Flu Activity Not available.
METAR KHYA 281356Z 23010KT 10SM FEW015 FEW070 27/21 A2997 RMK AO2 SLP148 T02670211

More Conditions Fewer Conditions

Pressure 29.97 in
Visibility 10.0 miles
Clouds Few 1500 ft
Few 7000 ft
Heat Index 83 °F
Dew Point 74 °F
Humidity 83%
Rainfall 0.00 in
Snow Depth Not available.
UV 4.0 out of 12
Pollen 5.10 out of 12
Air Quality Not available.
Flu Activity Not available.
METAR KHYA 281356Z 23010KT 10SM FEW015 FEW070 27/21 A2997 RMK AO2 SLP148 T02670211

More Conditions Fewer Conditions

10-Day Weather Forecast

×

Almanac

Astronomy

Jul. 28, 2015 Rise Set
Actual Time
Civil Twilight
Nautical Twilight
Astronomical Twilight
Moon
Length of Visible Light
Length of Day
Tomorrow will be .
, % of the Moon is Illuminated

Today's Extremes

State Highs State Lows

Community

WunderPhotos

Upload Photos

1,841,836 photos uploaded!

WunderBlogs® & News

Nearby

Air Quality

  Air Quality AQ Index Pollutant
Not available.

Snow Depth

Station Depth Elevation

Earthquake Activity

City Distance Mag. Time & Date
Minimum magnitude displayed is 2.5.

Coastal Water Temperatures

Place Temperature

Stations

Nearby Weather Stations

Station Location Temp. Windchill Dew Point Humidity Wind Precip. Elev Updated Type